»·PEaware :: N989Z KSNA-KCRQ

N989Z :: KSNA-KCRQ

FLIGHT INFORMATION

Flight Status: Arrived
Operator: Privately registered:
United States
More flights under this callsign
Pilot: Thiago S. (19132)
Aircraft: CESSNA 210 CENTURION
(C210)
More flights by this aircraft type
Origin: KSNA John Wayne-Orange Co
United States
Destination: KCRQ McClellan-Palomar
United States
More flights between these airports :: More routes between these airports
Route: V23 OCN
File this flight plan on PilotEdge
Remarks:
Altitude:
(Current/Filed)
5,000ft
Speed:
(Current/Filed)
160kts
Departed: 21-May-18 12:00 PM
Arrived: 21-May-18 12:34 PM
Distance/Time
Traveled:
44nm/0:33
Distance/Time
To Go:
Arrived

Flight Plot

Page will automatically refresh every two minutes.


Map Options




Map Legend


Flown Route
Filed Route
Departure Airport
Arrival Airport
Navaid (VOR, NDB)
Fix

Horizontal Profiles

Position Reports

Time Latitude Longitude Heading Altitude Ground
Speed
21-May-18 11:52 33.676647 -117.871238 116 58ft 0kts
21-May-18 11:53 33.673751 -117.873124 319 58ft 0kts
21-May-18 11:54 33.673754 -117.873126 319 58ft 0kts
21-May-18 11:55 33.673759 -117.873131 319 58ft 0kts
21-May-18 11:56 33.673764 -117.873136 319 58ft 0kts
21-May-18 11:57 33.673989 -117.871595 69 58ft 17kts
21-May-18 11:58 33.678777 -117.868637 26 58ft 18kts
21-May-18 11:59 33.681009 -117.866797 122 58ft 8kts
21-May-18 12:00 33.668230 -117.874595 214 634ft 95kts
21-May-18 12:01 33.642363 -117.881016 183 1838ft 108kts
21-May-18 12:02 33.611349 -117.883600 184 2766ft 117kts
21-May-18 12:03 33.577727 -117.886301 184 3486ft 123kts
21-May-18 12:04 33.558460 -117.855873 110 4252ft 127kts
21-May-18 12:05 33.545720 -117.815454 115 4933ft 132kts
21-May-18 12:06 33.528506 -117.773518 118 5003ft 147kts
21-May-18 12:07 33.503852 -117.733918 135 5000ft 149kts
21-May-18 12:08 33.472027 -117.701850 142 5002ft 151kts
21-May-18 12:09 33.440195 -117.668383 135 4999ft 153kts
21-May-18 12:10 33.411860 -117.630435 131 5000ft 151kts
21-May-18 12:11 33.383443 -117.593658 135 5001ft 149kts
21-May-18 12:12 33.354221 -117.558503 134 5002ft 149kts
21-May-18 12:13 33.325495 -117.522718 134 5012ft 149kts
21-May-18 12:14 33.296760 -117.487129 134 5011ft 149kts
21-May-18 12:15 33.268004 -117.451564 134 5012ft 149kts
21-May-18 12:16 33.247668 -117.410595 95 5044ft 149kts
21-May-18 12:17 33.244948 -117.360622 94 5011ft 151kts
21-May-18 12:18 33.242308 -117.310361 94 5011ft 151kts
21-May-18 12:19 33.239545 -117.259860 94 5011ft 153kts
21-May-18 12:20 33.236736 -117.209005 94 5012ft 153kts
21-May-18 12:21 33.233865 -117.159271 94 5013ft 150kts
21-May-18 12:22 33.230645 -117.109709 94 5013ft 149kts
21-May-18 12:23 33.227352 -117.060380 94 5010ft 149kts
21-May-18 12:24 33.224486 -117.010617 99 5009ft 149kts
21-May-18 12:25 33.189526 -116.989116 186 5008ft 153kts
21-May-18 12:26 33.165692 -117.029977 268 4285ft 175kts
21-May-18 12:27 33.161937 -117.090074 253 2460ft 171kts
21-May-18 12:28 33.151743 -117.132474 255 2203ft 92kts
21-May-18 12:29 33.147366 -117.160493 257 2475ft 89kts
21-May-18 12:30 33.142691 -117.190360 257 1856ft 82kts
21-May-18 12:31 33.138985 -117.216231 252 1409ft 75kts
21-May-18 12:32 33.134906 -117.239852 250 1024ft 68kts
21-May-18 12:33 33.131408 -117.261201 251 577ft 62kts
21-May-18 12:34 33.128615 -117.277606 255 335ft 23kts
21-May-18 12:35 33.127638 -117.277620 99 335ft 10kts
21-May-18 12:36 33.127232 -117.275289 121 335ft 8kts
21-May-18 12:37 33.127094 -117.275325 345 335ft 0kts
21-May-18 12:38 33.127094 -117.275325 345 335ft 0kts
21-May-18 12:39 33.127094 -117.275325 345 335ft 0kts
21-May-18 12:40 33.127094 -117.275325 345 335ft 0kts
21-May-18 12:41 33.127094 -117.275325 345 335ft 0kts
21-May-18 12:42 33.127094 -117.275325 345 335ft 0kts
21-May-18 12:43 33.127094 -117.275325 345 335ft 0kts
21-May-18 12:44 33.127094 -117.275325 345 335ft 0kts
21-May-18 12:45 33.127094 -117.275325 345 335ft 0kts
21-May-18 12:46 33.127094 -117.275325 345 335ft 0kts
21-May-18 12:47 33.127094 -117.275325 345 335ft 0kts
21-May-18 12:48 33.127094 -117.275325 345 335ft 0kts

Navigation Log

Ident Type
Flight plan parsing failed, navigation log unavailable